createdAt,value
2018-05-18T00:01:13.916Z,70.25
2018-05-18T00:03:43.054Z,70.52
2018-05-18T00:06:11.409Z,70.66
2018-05-18T00:08:39.777Z,70.71
2018-05-18T00:11:08.106Z,70.84
2018-05-18T00:13:36.482Z,70.92
2018-05-18T00:16:04.807Z,71.12
2018-05-18T00:18:33.908Z,71.28
2018-05-18T00:21:02.368Z,71.29
2018-05-18T00:23:30.625Z,71.32
2018-05-18T00:25:58.956Z,71.55
2018-05-18T00:28:27.325Z,71.49
2018-05-18T00:30:55.675Z,71.72
2018-05-18T00:33:24.032Z,72.06
2018-05-18T00:35:52.405Z,72.27
2018-05-18T00:38:20.771Z,72.37
2018-05-18T00:40:49.091Z,73.02
2018-05-18T00:43:18.241Z,73.28
2018-05-18T00:45:46.581Z,73.26
2018-05-18T00:48:14.939Z,73.51
2018-05-18T00:50:44.077Z,73.37
2018-05-18T00:53:12.449Z,73.57
2018-05-18T00:55:42.411Z,73.28
2018-05-18T00:58:10.797Z,73.76
2018-05-18T01:00:39.163Z,74.36
2018-05-18T01:03:07.590Z,74.81
2018-05-18T01:05:35.972Z,75.25
2018-05-18T01:08:04.328Z,75.12
2018-05-18T01:10:33.432Z,75.36
2018-05-18T01:13:01.817Z,75.63
2018-05-18T01:15:30.136Z,75.65
2018-05-18T01:17:58.499Z,75.34
2018-05-18T01:20:26.819Z,75.26
2018-05-18T01:22:55.175Z,75.16
2018-05-18T01:25:23.525Z,75.28
2018-05-18T01:27:51.909Z,75.69
2018-05-18T01:30:20.261Z,76.06
2018-05-18T01:32:49.049Z,76.12
2018-05-18T01:35:17.386Z,76.16
2018-05-18T01:37:45.713Z,76.18
2018-05-18T01:40:14.103Z,76.58
2018-05-18T01:42:42.825Z,76.88
2018-05-18T01:45:11.210Z,76.62
2018-05-18T01:47:39.555Z,76.75
2018-05-18T01:50:07.879Z,76.79
2018-05-18T01:52:37.030Z,76.98
2018-05-18T01:55:05.428Z,76.75
2018-05-18T01:57:33.807Z,76.77
2018-05-18T02:00:02.177Z,76.98
2018-05-18T02:02:30.544Z,77.26
2018-05-18T02:04:58.888Z,77.19
2018-05-18T02:07:27.286Z,77.29
2018-05-18T02:09:56.522Z,77.50
2018-05-18T02:12:24.888Z,77.67
2018-05-18T02:14:53.228Z,77.97
2018-05-18T02:17:21.550Z,78.22
2018-05-18T02:19:49.890Z,78.33
2018-05-18T02:22:19.307Z,78.34
2018-05-18T02:24:47.693Z,78.36
2018-05-18T02:27:16.064Z,78.61
2018-05-18T02:29:44.528Z,78.62
2018-05-18T02:32:12.877Z,78.80
2018-05-18T02:34:42.061Z,78.91
2018-05-18T02:37:11.068Z,78.63
2018-05-18T02:39:40.238Z,78.78
2018-05-18T02:42:09.345Z,78.78
2018-05-18T02:44:38.488Z,78.92
2018-05-18T02:47:07.009Z,78.97
2018-05-18T02:49:35.344Z,79.05
2018-05-18T02:52:03.724Z,79.11
2018-05-18T02:54:32.108Z,79.19
2018-05-18T02:57:00.563Z,79.11
2018-05-18T02:59:29.350Z,79.40
2018-05-18T03:01:58.581Z,79.19
2018-05-18T03:04:27.622Z,79.06
2018-05-18T03:06:57.800Z,79.30
2018-05-18T03:09:26.736Z,79.14
2018-05-18T03:11:55.509Z,79.13
2018-05-18T03:14:23.824Z,79.11
2018-05-18T03:16:52.931Z,79.37
2018-05-18T03:19:21.541Z,79.75
2018-05-18T03:21:49.942Z,79.70
2018-05-18T03:24:18.272Z,79.98
2018-05-18T03:26:46.616Z,79.90
2018-05-18T03:29:15.746Z,79.72
2018-05-18T03:31:44.054Z,79.71
2018-05-18T03:34:12.411Z,79.57
2018-05-18T03:36:40.827Z,79.40
2018-05-18T03:39:09.284Z,78.84
2018-05-18T03:41:37.691Z,78.71
2018-05-18T03:44:06.789Z,78.44
2018-05-18T03:46:35.982Z,78.25
2018-05-18T03:49:04.333Z,78.16
2018-05-18T03:51:33.466Z,77.86
2018-05-18T03:54:02.941Z,77.68
2018-05-18T03:56:31.297Z,77.49
2018-05-18T03:58:59.653Z,77.42
2018-05-18T04:01:45.666Z,77.05
2018-05-18T04:04:31.543Z,76.81
2018-05-18T04:07:17.523Z,76.62
2018-05-18T04:09:46.815Z,76.40
2018-05-18T04:12:15.184Z,76.07
2018-05-18T04:14:45.207Z,75.98
2018-05-18T04:17:13.679Z,75.81
2018-05-18T04:19:44.265Z,75.69
2018-05-18T04:22:13.071Z,75.63
2018-05-18T04:24:42.983Z,75.96
2018-05-18T04:27:12.398Z,76.19
2018-05-18T04:29:42.294Z,76.52
2018-05-18T04:32:11.431Z,76.43
2018-05-18T04:34:41.266Z,76.05
2018-05-18T04:37:10.412Z,76.38
2018-05-18T04:39:39.113Z,76.60
2018-05-18T04:42:08.967Z,76.36
2018-05-18T04:44:37.293Z,75.94
2018-05-18T04:47:06.522Z,76.18
2018-05-18T04:49:36.148Z,76.29
2018-05-18T04:52:04.516Z,76.25
2018-05-18T04:54:32.858Z,75.99
2018-05-18T04:57:02.836Z,75.86
2018-05-18T04:59:31.887Z,75.64
2018-05-18T05:02:00.381Z,75.33
2018-05-18T05:04:28.765Z,74.76
2018-05-18T05:06:57.276Z,73.56
2018-05-18T05:09:26.529Z,72.87
2018-05-18T05:11:57.126Z,72.50
2018-05-18T05:14:27.067Z,71.94
2018-05-18T05:16:56.227Z,71.58
2018-05-18T05:19:25.514Z,70.59
2018-05-18T05:21:54.455Z,69.70
2018-05-18T05:24:24.574Z,69.23
2018-05-18T05:26:52.893Z,68.65
2018-05-18T05:29:21.389Z,67.92
2018-05-18T05:31:50.193Z,68.44
2018-05-18T05:34:18.646Z,67.59
2018-05-18T05:36:47.049Z,67.19
2018-05-18T05:39:15.378Z,66.46
2018-05-18T05:41:44.879Z,67.48
2018-05-18T05:44:13.875Z,67.56
2018-05-18T05:46:42.219Z,66.66
2018-05-18T05:49:12.079Z,66.17
2018-05-18T05:51:40.546Z,66.13
2018-05-18T05:54:08.891Z,65.34
2018-05-18T05:56:37.261Z,64.67
2018-05-18T05:59:05.594Z,64.32
2018-05-18T06:01:33.965Z,63.84
2018-05-18T06:04:02.303Z,63.69
2018-05-18T06:06:31.394Z,63.23
2018-05-18T06:09:00.560Z,63.51
2018-05-18T06:11:28.927Z,63.86
2018-05-18T06:13:57.326Z,63.82
2018-05-18T06:16:25.671Z,63.56
2018-05-18T06:18:54.391Z,63.18
2018-05-18T06:21:24.583Z,62.73
2018-05-18T06:23:52.953Z,63.16
2018-05-18T06:26:21.346Z,63.27
2018-05-18T06:28:49.740Z,62.91
2018-05-18T06:31:18.167Z,63.40
2018-05-18T06:33:46.558Z,63.09
2018-05-18T06:36:14.916Z,63.04
2018-05-18T06:38:44.017Z,63.49
2018-05-18T06:41:12.588Z,63.49
2018-05-18T06:43:40.878Z,63.46
2018-05-18T06:46:09.278Z,63.01
2018-05-18T06:48:37.649Z,62.79
2018-05-18T06:51:06.013Z,62.52
2018-05-18T06:53:34.379Z,62.42
2018-05-18T06:56:03.470Z,61.93
2018-05-18T06:58:32.597Z,61.23
2018-05-18T07:01:01.120Z,60.96
2018-05-18T07:03:30.263Z,60.23
2018-05-18T07:05:58.592Z,59.78
2018-05-18T07:08:28.443Z,59.68
2018-05-18T07:10:58.116Z,59.61
2018-05-18T07:13:26.481Z,59.29
2018-05-18T07:15:54.842Z,58.63
2018-05-18T07:18:23.216Z,57.72
2018-05-18T07:20:51.582Z,57.14
2018-05-18T07:23:20.675Z,56.56
2018-05-18T07:25:49.788Z,55.35
2018-05-18T07:28:18.701Z,55.59
2018-05-18T07:30:47.557Z,55.16
2018-05-18T07:33:16.332Z,55.22
2018-05-18T07:35:45.135Z,54.78
2018-05-18T07:38:13.520Z,53.32
2018-05-18T07:40:41.855Z,52.47
2018-05-18T07:43:11.002Z,51.05
2018-05-18T07:45:39.341Z,51.48
2018-05-18T07:48:08.452Z,51.99
2018-05-18T07:50:36.800Z,51.99
2018-05-18T07:53:05.944Z,52.78
2018-05-18T07:55:34.313Z,54.12
2018-05-18T07:58:02.691Z,54.71
2018-05-18T08:00:31.833Z,55.70
2018-05-18T08:03:00.183Z,54.58
2018-05-18T08:05:28.544Z,53.43
2018-05-18T08:07:57.070Z,50.65
2018-05-18T08:10:25.402Z,49.75
2018-05-18T08:12:53.762Z,48.79
2018-05-18T08:15:22.123Z,48.63
2018-05-18T08:17:51.205Z,48.52
2018-05-18T08:20:20.329Z,48.26
2018-05-18T08:22:48.695Z,47.74
2018-05-18T08:25:17.043Z,48.38
2018-05-18T08:27:45.439Z,49.20
2018-05-18T08:30:13.768Z,49.40
2018-05-18T08:32:42.088Z,49.22
2018-05-18T08:35:11.243Z,50.96
2018-05-18T08:37:39.605Z,51.18
2018-05-18T08:40:07.932Z,50.00
2018-05-18T08:42:37.048Z,52.18
2018-05-18T08:45:06.161Z,51.80
2018-05-18T08:47:34.501Z,51.80
2018-05-18T08:50:02.962Z,51.37
2018-05-18T08:52:32.035Z,50.27
2018-05-18T08:55:00.361Z,49.44
2018-05-18T08:57:29.490Z,49.53
2018-05-18T08:59:57.866Z,50.31
2018-05-18T09:02:26.212Z,50.37
2018-05-18T09:04:55.354Z,49.74
2018-05-18T09:07:23.701Z,49.66
2018-05-18T09:09:52.809Z,48.52
2018-05-18T09:12:21.183Z,48.15
2018-05-18T09:14:49.571Z,47.89
2018-05-18T09:17:17.928Z,47.20
2018-05-18T09:19:46.262Z,47.37
2018-05-18T09:22:14.585Z,48.20
2018-05-18T09:24:43.698Z,47.51
2018-05-18T09:27:12.082Z,48.19
2018-05-18T09:29:40.431Z,48.30
2018-05-18T09:32:09.539Z,48.50
2018-05-18T09:34:37.889Z,47.77
2018-05-18T09:37:06.253Z,47.51
2018-05-18T09:39:34.610Z,46.82
2018-05-18T09:42:02.962Z,48.13
2018-05-18T09:44:32.116Z,48.29
2018-05-18T09:47:00.497Z,49.26
2018-05-18T09:49:29.334Z,49.35
2018-05-18T09:51:58.491Z,47.80
2018-05-18T09:54:27.849Z,46.62
2018-05-18T09:56:56.835Z,47.52
2018-05-18T09:59:26.092Z,47.35
2018-05-18T10:01:55.223Z,47.77
2018-05-18T10:04:23.563Z,46.64
2018-05-18T10:06:52.775Z,46.15
2018-05-18T10:09:21.945Z,47.27
2018-05-18T10:11:50.307Z,46.65
2018-05-18T10:14:18.672Z,47.60
2018-05-18T10:16:47.026Z,47.02
2018-05-18T10:19:15.388Z,47.45
2018-05-18T10:21:44.220Z,47.05
2018-05-18T10:24:12.946Z,48.57
2018-05-18T10:26:42.397Z,48.04
2018-05-18T10:29:11.459Z,48.81
2018-05-18T10:31:40.114Z,48.15
2018-05-18T10:34:11.720Z,46.80
2018-05-18T10:36:40.128Z,46.29
2018-05-18T10:39:08.519Z,45.23
2018-05-18T10:41:38.848Z,45.16
2018-05-18T10:44:08.036Z,44.63
2018-05-18T10:46:37.304Z,44.93
2018-05-18T10:49:05.811Z,45.49
2018-05-18T10:51:36.388Z,45.01
2018-05-18T10:54:04.940Z,44.38
2018-05-18T10:56:34.138Z,44.01
2018-05-18T10:59:03.253Z,45.80
2018-05-18T11:01:32.429Z,46.00
2018-05-18T11:04:02.145Z,45.51
2018-05-18T11:06:31.335Z,43.44
2018-05-18T11:08:59.722Z,44.77
2018-05-18T11:11:28.875Z,45.09
2018-05-18T11:13:59.045Z,46.36
2018-05-18T11:16:27.983Z,47.04
2018-05-18T11:18:57.196Z,46.80
2018-05-18T11:21:26.381Z,46.41
2018-05-18T11:23:55.224Z,46.08
2018-05-18T11:26:23.612Z,45.27
2018-05-18T11:28:52.033Z,45.05
2018-05-18T11:31:21.256Z,46.22
2018-05-18T11:33:50.648Z,46.08
2018-05-18T11:36:21.295Z,44.62
2018-05-18T11:38:51.251Z,44.89
2018-05-18T11:41:20.947Z,43.12
2018-05-18T11:43:49.382Z,42.09
2018-05-18T11:46:17.718Z,42.59
2018-05-18T11:48:46.056Z,43.58
2018-05-18T11:51:15.210Z,45.10
2018-05-18T11:53:43.538Z,44.08
2018-05-18T11:56:12.791Z,44.00
2018-05-18T11:58:41.126Z,42.88
2018-05-18T12:01:09.499Z,42.01
2018-05-18T12:03:37.852Z,41.64
2018-05-18T12:06:06.233Z,40.52
2018-05-18T12:08:34.631Z,40.61
2018-05-18T12:11:26.354Z,41.27
2018-05-18T12:14:18.016Z,42.61
2018-05-18T12:17:09.876Z,42.65
2018-05-18T12:19:38.320Z,42.07
2018-05-18T12:22:06.747Z,42.85
2018-05-18T12:24:35.100Z,43.03
2018-05-18T12:27:03.439Z,41.93
2018-05-18T12:29:31.846Z,41.11
2018-05-18T12:32:00.221Z,42.53
2018-05-18T12:34:28.579Z,42.54
2018-05-18T12:36:56.968Z,41.02
2018-05-18T12:39:25.352Z,41.90
2018-05-18T12:41:54.561Z,43.67
2018-05-18T12:44:22.932Z,46.14
2018-05-18T12:46:51.299Z,45.43
2018-05-18T12:49:19.660Z,46.22
2018-05-18T12:51:47.995Z,48.16
2018-05-18T12:54:16.388Z,47.41
2018-05-18T12:56:45.549Z,46.77
2018-05-18T12:59:13.882Z,45.91
2018-05-18T13:01:46.237Z,46.49
2018-05-18T13:04:16.106Z,46.39
2018-05-18T13:06:44.444Z,46.34
2018-05-18T13:09:12.816Z,44.34
2018-05-18T13:11:41.181Z,44.74
2018-05-18T13:14:13.860Z,46.03
2018-05-18T13:16:43.564Z,46.23
2018-05-18T13:19:11.960Z,47.11
2018-05-18T13:21:44.436Z,46.00
2018-05-18T13:24:13.580Z,45.27
2018-05-18T13:26:42.748Z,45.58
2018-05-18T13:29:12.323Z,46.71
2018-05-18T13:31:42.767Z,46.95
2018-05-18T13:34:11.135Z,46.85
2018-05-18T13:36:40.292Z,47.18
2018-05-18T13:39:08.695Z,47.38
2018-05-18T13:41:38.399Z,46.01
2018-05-18T13:44:06.756Z,44.31
2018-05-18T13:46:35.528Z,43.83
2018-05-18T13:49:05.009Z,43.78
2018-05-18T13:51:33.407Z,42.86
2018-05-18T13:54:01.787Z,43.69
2018-05-18T13:56:30.154Z,42.98
2018-05-18T13:58:58.513Z,43.22
2018-05-18T14:01:27.738Z,43.96
2018-05-18T14:03:56.227Z,43.44
2018-05-18T14:06:24.784Z,42.91
2018-05-18T14:08:54.061Z,42.71
2018-05-18T14:11:24.082Z,42.21
2018-05-18T14:13:53.357Z,41.64
2018-05-18T14:16:21.723Z,42.67
2018-05-18T14:18:50.176Z,42.70
2018-05-18T14:21:18.572Z,41.75
2018-05-18T14:23:46.995Z,40.46
2018-05-18T14:26:17.692Z,40.09
2018-05-18T14:28:46.689Z,40.48
2018-05-18T14:31:15.075Z,39.96
2018-05-18T14:33:44.575Z,39.92
2018-05-18T14:36:12.949Z,39.87
2018-05-18T14:38:41.331Z,40.45
2018-05-18T14:41:09.679Z,40.89
2018-05-18T14:43:38.023Z,40.93
2018-05-18T14:46:06.401Z,40.17
2018-05-18T14:48:34.781Z,40.47
2018-05-18T14:51:03.215Z,40.30
2018-05-18T14:53:32.306Z,39.28
2018-05-18T14:56:00.668Z,39.93
2018-05-18T14:58:29.028Z,40.15
2018-05-18T15:00:57.388Z,40.42
2018-05-18T15:03:25.763Z,40.08
2018-05-18T15:05:54.856Z,40.04
2018-05-18T15:08:23.235Z,41.02
2018-05-18T15:10:51.599Z,40.45
2018-05-18T15:13:20.738Z,41.93
2018-05-18T15:15:49.173Z,41.70
2018-05-18T15:18:18.278Z,40.79
2018-05-18T15:20:47.665Z,40.73
2018-05-18T15:23:16.992Z,41.94
2018-05-18T15:25:46.411Z,42.87
2018-05-18T15:28:14.999Z,43.54
2018-05-18T15:30:43.475Z,43.99
2018-05-18T15:33:12.102Z,44.19
2018-05-18T15:35:40.705Z,45.00
2018-05-18T15:38:09.840Z,45.11
2018-05-18T15:40:38.627Z,45.15
2018-05-18T15:43:06.987Z,45.81
2018-05-18T15:45:35.355Z,45.99
2018-05-18T15:48:04.650Z,46.38
2018-05-18T15:50:33.927Z,46.24
2018-05-18T15:53:02.320Z,46.10
2018-05-18T15:55:31.444Z,45.88
2018-05-18T15:57:59.832Z,47.10
2018-05-18T16:00:28.168Z,48.10
2018-05-18T16:02:59.169Z,48.38
2018-05-18T16:05:28.410Z,48.08
2018-05-18T16:08:00.548Z,48.41
2018-05-18T16:10:28.902Z,48.69
2018-05-18T16:12:57.295Z,48.72
2018-05-18T16:15:27.103Z,49.28
2018-05-18T16:17:56.482Z,49.95
2018-05-18T16:20:25.340Z,50.66
2018-05-18T16:22:54.446Z,50.75
2018-05-18T16:25:23.678Z,50.59
2018-05-18T16:27:52.947Z,50.60
2018-05-18T16:33:07.548Z,50.68
2018-05-18T16:35:36.540Z,50.81
2018-05-18T16:38:10.837Z,50.91
2018-05-18T16:40:39.621Z,51.02
2018-05-18T16:43:08.710Z,51.24
2018-05-18T16:45:37.065Z,51.50
2018-05-18T16:48:06.673Z,52.23
2018-05-18T16:50:36.024Z,52.52
2018-05-18T16:53:04.398Z,53.02
2018-05-18T16:55:40.830Z,53.61
2018-05-18T16:58:09.459Z,53.27
2018-05-18T17:00:37.910Z,53.36
2018-05-18T17:03:06.286Z,53.55
2018-05-18T17:05:34.632Z,53.80
2018-05-18T17:08:03.075Z,53.99
2018-05-18T17:10:31.552Z,54.42
2018-05-18T17:12:59.936Z,55.00
2018-05-18T17:15:28.538Z,55.23
2018-05-18T17:17:57.037Z,55.48
2018-05-18T17:20:25.976Z,55.63
2018-05-18T17:22:54.343Z,55.93
2018-05-18T17:25:22.799Z,56.30
2018-05-18T17:27:51.169Z,56.90
2018-05-18T17:30:20.155Z,56.84
2018-05-18T17:32:49.303Z,56.82
2018-05-18T17:35:18.429Z,57.13
2018-05-18T17:37:46.933Z,57.31
2018-05-18T17:40:16.097Z,57.48
2018-05-18T17:42:45.779Z,57.48
2018-05-18T17:45:14.168Z,57.71
2018-05-18T17:47:42.594Z,57.97
2018-05-18T17:50:10.960Z,58.16
2018-05-18T17:52:39.377Z,58.28
2018-05-18T17:55:07.765Z,58.56
2018-05-18T17:57:36.191Z,58.81
2018-05-18T18:00:04.567Z,58.90
2018-05-18T18:02:32.993Z,59.21
2018-05-18T18:05:01.351Z,59.34
2018-05-18T18:07:33.359Z,59.46
2018-05-18T18:10:03.820Z,59.96
2018-05-18T18:12:32.234Z,60.22
2018-05-18T18:15:03.497Z,60.42
2018-05-18T18:17:32.352Z,60.51
2018-05-18T18:20:00.766Z,60.68
2018-05-18T18:22:29.236Z,61.18
2018-05-18T18:24:57.517Z,61.13
2018-05-18T18:27:26.457Z,61.40
2018-05-18T18:29:54.937Z,61.46
2018-05-18T18:32:23.326Z,61.79
2018-05-18T18:34:51.899Z,62.06
2018-05-18T18:37:20.389Z,62.32
2018-05-18T18:39:49.349Z,62.28
2018-05-18T18:42:17.946Z,62.52
2018-05-18T18:44:47.332Z,62.54
2018-05-18T18:47:16.516Z,62.78
2018-05-18T18:49:47.219Z,62.95
2018-05-18T18:52:15.596Z,63.02
2018-05-18T18:54:44.248Z,63.04
2018-05-18T18:57:13.903Z,63.46
2018-05-18T18:59:42.834Z,63.73
2018-05-18T19:02:12.156Z,63.96
2018-05-18T19:04:40.561Z,64.37
2018-05-18T19:07:09.714Z,64.25
2018-05-18T19:09:38.103Z,64.38
2018-05-18T19:12:07.337Z,63.71
2018-05-18T19:14:38.000Z,63.73
2018-05-18T19:17:06.418Z,63.58
2018-05-18T19:19:35.773Z,63.52
2018-05-18T19:22:04.167Z,63.53
2018-05-18T19:24:32.586Z,63.37
2018-05-18T19:27:01.576Z,63.55
2018-05-18T19:29:29.926Z,63.74
2018-05-18T19:31:59.552Z,63.76
2018-05-18T19:34:29.618Z,63.36
2018-05-18T19:36:59.000Z,63.23
2018-05-18T19:39:29.437Z,63.20
2018-05-18T19:41:58.036Z,63.55
2018-05-18T19:44:26.576Z,63.43
2018-05-18T19:46:55.876Z,63.21
2018-05-18T19:49:24.350Z,64.02
2018-05-18T19:51:52.792Z,64.26
2018-05-18T19:54:26.992Z,64.29
2018-05-18T19:56:56.355Z,64.23
2018-05-18T19:59:24.958Z,64.13
2018-05-18T20:01:53.521Z,64.23
2018-05-18T20:04:22.380Z,64.10
2018-05-18T20:06:52.139Z,64.14
2018-05-18T20:09:21.378Z,64.34
2018-05-18T20:11:49.812Z,64.75
2018-05-18T20:14:18.973Z,65.07
2018-05-18T20:16:47.411Z,65.29
2018-05-18T20:19:17.144Z,65.43
2018-05-18T20:21:45.766Z,65.92
2018-05-18T20:24:14.188Z,65.96
2018-05-18T20:26:42.604Z,66.35
2018-05-18T20:29:10.964Z,66.93
2018-05-18T20:31:39.304Z,67.45
2018-05-18T20:34:07.695Z,67.64
2018-05-18T20:36:36.056Z,67.71
2018-05-18T20:39:06.066Z,67.53
2018-05-18T20:41:35.199Z,67.70
2018-05-18T20:44:03.605Z,67.62
2018-05-18T20:46:31.936Z,67.52
2018-05-18T20:49:01.054Z,67.33
2018-05-18T20:51:29.435Z,67.19
2018-05-18T20:53:57.779Z,67.20
2018-05-18T20:56:26.916Z,67.18
2018-05-18T20:58:55.290Z,67.26
2018-05-18T21:01:23.654Z,67.24
2018-05-18T21:03:51.992Z,67.29
2018-05-18T21:06:20.329Z,67.15
2018-05-18T21:08:48.692Z,67.10
2018-05-18T21:11:17.070Z,67.29
2018-05-18T21:13:45.443Z,67.37
2018-05-18T21:16:13.823Z,67.49
2018-05-18T21:18:42.199Z,67.29
2018-05-18T21:21:10.525Z,67.37
2018-05-18T21:23:38.898Z,67.19
2018-05-18T21:26:07.251Z,67.24
2018-05-18T21:28:35.587Z,67.43
2018-05-18T21:31:04.733Z,67.56
2018-05-18T21:33:33.136Z,67.65
2018-05-18T21:36:01.504Z,67.69
2018-05-18T21:38:29.867Z,67.56
2018-05-18T21:40:58.291Z,67.48
2018-05-18T21:43:27.382Z,67.62
2018-05-18T21:45:56.524Z,67.91
2018-05-18T21:48:24.857Z,67.72
2018-05-18T21:50:53.957Z,68.02
2018-05-18T21:53:23.086Z,68.13
2018-05-18T21:55:51.471Z,68.30
2018-05-18T21:58:19.847Z,68.60
2018-05-18T22:00:48.232Z,68.77
2018-05-18T22:03:16.599Z,68.76
2018-05-18T22:05:44.995Z,68.79
2018-05-18T22:08:13.400Z,68.74
2018-05-18T22:10:41.775Z,68.64
2018-05-18T22:13:10.157Z,68.65
2018-05-18T22:15:38.535Z,68.64
2018-05-18T22:18:06.907Z,68.76
2018-05-18T22:20:35.255Z,68.84
2018-05-18T22:23:03.591Z,69.14
2018-05-18T22:25:32.725Z,69.15
2018-05-18T22:28:01.083Z,69.15
2018-05-18T22:30:29.923Z,69.40
2018-05-18T22:32:58.279Z,69.48
2018-05-18T22:35:26.650Z,69.39
2018-05-18T22:37:55.000Z,69.49
2018-05-18T22:40:23.358Z,69.51
2018-05-18T22:42:52.494Z,69.61
2018-05-18T22:45:20.845Z,69.55
2018-05-18T22:47:49.250Z,69.59
2018-05-18T22:50:17.602Z,69.83
2018-05-18T22:52:46.757Z,69.91
2018-05-18T22:55:15.109Z,69.79
2018-05-18T22:57:43.467Z,69.81
2018-05-18T23:00:11.830Z,70.20
2018-05-18T23:02:40.961Z,70.17
2018-05-18T23:05:09.382Z,70.20
2018-05-18T23:07:37.713Z,70.27
2018-05-18T23:10:06.088Z,70.40
2018-05-18T23:12:34.446Z,70.46
2018-05-18T23:15:02.794Z,70.65
2018-05-18T23:17:31.166Z,70.60
2018-05-18T23:19:59.508Z,70.59
2018-05-18T23:22:27.880Z,70.56
2018-05-18T23:24:56.210Z,70.77
2018-05-18T23:27:24.574Z,70.84
2018-05-18T23:29:52.910Z,70.67
2018-05-18T23:32:21.270Z,70.55
2018-05-18T23:34:49.629Z,70.58
2018-05-18T23:37:18.741Z,70.75
2018-05-18T23:39:47.116Z,70.93
2018-05-18T23:42:16.218Z,70.98
2018-05-18T23:44:45.601Z,70.96
2018-05-18T23:47:13.967Z,70.94
2018-05-18T23:49:43.188Z,70.98
2018-05-18T23:52:11.567Z,70.82
2018-05-18T23:54:40.796Z,70.87
2018-05-18T23:57:09.122Z,71.08
2018-05-18T23:59:37.478Z,71.10
